Wetterdaten: Woche 18.02.13 - 24.02.13 (KW8)
Datum Zeit Temp. Aussen +5cm Feuchte Auss Luftdruck Regen Sonnenschein Regendauer UV Solar Windben
18.02.2013 00:00 -1,0 C -2,7 C 93 % 1022,1 hPa 0,0 l/m 0,00 h 0,00 h 0,0 UV-I 0 W/m 0,0 km/h (0 Bft)
18.02.2013 01:00 -1,7 C -3,2 C 94 % 1021,8 hPa 0,0 l/m 0,00 h 0,00 h 0,0 UV-I 0 W/m 0,0 km/h (0 Bft)
18.02.2013 02:00 -2,0 C -3,3 C 95 % 1021,6 hPa 0,0 l/m 0,00 h 0,00 h 0,0 UV-I 0 W/m 0,0 km/h (0 Bft)
18.02.2013 03:00 -2,6 C -3,8 C 95 % 1021,5 hPa 0,0 l/m 0,00 h 0,00 h 0,0 UV-I 0 W/m 0,0 km/h (0 Bft)
18.02.2013 04:00 -3,1 C -4,2 C 96 % 1021,5 hPa 0,0 l/m 0,00 h 0,03 h 0,0 UV-I 0 W/m 0,0 km/h (0 Bft)
18.02.2013 05:00 -3,5 C -4,4 C 96 % 1021,4 hPa 0,0 l/m 0,00 h 0,00 h 0,0 UV-I 0 W/m 0,0 km/h (0 Bft)
18.02.2013 06:00 -3,8 C -4,9 C 97 % 1021,5 hPa 0,0 l/m 0,00 h 0,00 h 0,0 UV-I 0 W/m 0,0 km/h (0 Bft)
18.02.2013 07:00 -3,9 C -4,6 C 97 % 1021,7 hPa 0,0 l/m 0,00 h 0,00 h 0,0 UV-I 6 W/m 0,0 km/h (0 Bft)
18.02.2013 08:00 -3,3 C -3,4 C 98 % 1022,0 hPa 0,0 l/m 0,00 h 0,00 h 0,0 UV-I 29 W/m 0,0 km/h (0 Bft)
18.02.2013 09:00 -1,5 C -1,3 C 99 % 1022,2 hPa 0,0 l/m 0,00 h 0,00 h 0,0 UV-I 89 W/m 0,0 km/h (0 Bft)
18.02.2013 10:00 1,0 C 1,1 C 100 % 1022,1 hPa 0,0 l/m 0,67 h 0,00 h 0,0 UV-I 223 W/m 3,5 km/h (1 Bft)
18.02.2013 11:00 3,5 C 2,1 C 87 % 1021,9 hPa 0,0 l/m 0,30 h 0,00 h 0,0 UV-I 184 W/m 5,8 km/h (2 Bft)
18.02.2013 12:00 4,8 C 4,0 C 75 % 1021,7 hPa 0,0 l/m 0,73 h 0,00 h 0,6 UV-I 377 W/m 4,3 km/h (1 Bft)
18.02.2013 13:00 6,4 C 4,6 C 67 % 1021,3 hPa 0,0 l/m 1,00 h 0,00 h 0,6 UV-I 420 W/m 7,2 km/h (2 Bft)
18.02.2013 14:00 6,7 C 4,9 C 66 % 1020,9 hPa 0,0 l/m 1,00 h 0,00 h 0,0 UV-I 357 W/m 6,2 km/h (2 Bft)
18.02.2013 15:00 6,8 C 5,0 C 66 % 1020,6 hPa 0,0 l/m 1,00 h 0,00 h 0,0 UV-I 275 W/m 6,9 km/h (2 Bft)
18.02.2013 16:00 6,0 C 4,1 C 68 % 1020,5 hPa 0,0 l/m 0,37 h 0,00 h 0,0 UV-I 102 W/m 3,9 km/h (1 Bft)
18.02.2013 17:00 4,8 C 2,8 C 72 % 1020,4 hPa 0,0 l/m 0,00 h 0,00 h 0,0 UV-I 26 W/m 1,9 km/h (1 Bft)
18.02.2013 18:00 3,7 C 1,4 C 76 % 1020,3 hPa 0,0 l/m 0,00 h 0,00 h 0,0 UV-I 0 W/m 0,1 km/h (0 Bft)
18.02.2013 19:00 2,9 C 0,4 C 80 % 1020,1 hPa 0,0 l/m 0,00 h 0,00 h 0,0 UV-I 0 W/m 0,1 km/h (0 Bft)
18.02.2013 20:00 1,7 C -1,3 C 82 % 1019,8 hPa 0,0 l/m 0,00 h 0,00 h 0,0 UV-I 0 W/m 0,0 km/h (0 Bft)
18.02.2013 21:00 0,5 C -2,1 C 85 % 1019,9 hPa 0,0 l/m 0,00 h 0,00 h 0,0 UV-I 0 W/m 0,0 km/h (0 Bft)
18.02.2013 22:00 -0,1 C -2,0 C 88 % 1019,9 hPa 0,0 l/m 0,00 h 0,00 h 0,0 UV-I 0 W/m 0,0 km/h (0 Bft)
18.02.2013 23:00 -0,3 C -2,1 C 90 % 1019,7 hPa 0,0 l/m 0,00 h 0,00 h 0,0 UV-I 0 W/m 0,0 km/h (0 Bft)
19.02.2013 00:00 -0,6 C -2,1 C 92 % 1019,4 hPa 0,0 l/m 0,00 h 0,00 h 0,0 UV-I 0 W/m 0,0 km/h (0 Bft)
19.02.2013 01:00 -0,9 C -2,4 C 93 % 1019,1 hPa 0,0 l/m 0,00 h 0,00 h 0,0 UV-I 0 W/m 0,0 km/h (0 Bft)
19.02.2013 02:00 -0,9 C -2,0 C 94 % 1018,9 hPa 0,0 l/m 0,00 h 0,00 h 0,0 UV-I 0 W/m 0,1 km/h (0 Bft)
19.02.2013 03:00 -0,5 C -1,5 C 95 % 1018,6 hPa 0,0 l/m 0,00 h 0,00 h 0,0 UV-I 0 W/m 0,4 km/h (0 Bft)
19.02.2013 04:00 -0,2 C -1,0 C 94 % 1018,0 hPa 0,0 l/m 0,00 h 0,00 h 0,0 UV-I 0 W/m 0,0 km/h (0 Bft)
19.02.2013 05:00 0,2 C -0,6 C 94 % 1017,8 hPa 0,0 l/m 0,00 h 0,00 h 0,0 UV-I 0 W/m 0,5 km/h (0 Bft)
19.02.2013 06:00 0,4 C -0,4 C 93 % 1017,5 hPa 0,0 l/m 0,00 h 0,00 h 0,0 UV-I 0 W/m 0,8 km/h (0 Bft)
19.02.2013 07:00 0,6 C -0,4 C 92 % 1017,5 hPa 0,0 l/m 0,00 h 0,00 h 0,0 UV-I 0 W/m 0,6 km/h (0 Bft)
19.02.2013 08:00 0,8 C -0,1 C 93 % 1017,6 hPa 0,0 l/m 0,00 h 0,00 h 0,0 UV-I 14 W/m 0,9 km/h (0 Bft)
19.02.2013 09:00 0,9 C 0,2 C 93 % 1017,7 hPa 0,0 l/m 0,00 h 0,00 h 0,0 UV-I 29 W/m 0,2 km/h (0 Bft)
19.02.2013 10:00 1,6 C 1,4 C 94 % 1017,5 hPa 0,0 l/m 0,00 h 0,00 h 0,0 UV-I 62 W/m 2,0 km/h (1 Bft)
19.02.2013 11:00 2,3 C 2,3 C 92 % 1017,4 hPa 0,0 l/m 0,00 h 0,00 h 0,0 UV-I 86 W/m 3,6 km/h (1 Bft)
19.02.2013 12:00 3,1 C 3,0 C 90 % 1017,3 hPa 0,0 l/m 0,00 h 0,00 h 0,0 UV-I 92 W/m 5,2 km/h (1 Bft)
19.02.2013 13:00 3,8 C 3,5 C 88 % 1016,9 hPa 0,0 l/m 0,00 h 0,00 h 0,0 UV-I 84 W/m 4,5 km/h (1 Bft)
19.02.2013 14:00 3,9 C 2,9 C 90 % 1016,4 hPa 0,0 l/m 0,00 h 0,63 h 0,0 UV-I 76 W/m 3,1 km/h (1 Bft)
19.02.2013 15:00 3,8 C 2,3 C 92 % 1016,2 hPa 0,2 l/m 0,00 h 0,60 h 0,0 UV-I 52 W/m 4,4 km/h (1 Bft)
19.02.2013 16:00 3,7 C 2,3 C 94 % 1016,1 hPa 0,2 l/m 0,00 h 0,97 h 0,0 UV-I 21 W/m 1,2 km/h (1 Bft)
19.02.2013 17:00 3,7 C 2,3 C 95 % 1016,2 hPa 0,2 l/m 0,00 h 0,80 h 0,0 UV-I 9 W/m 0,4 km/h (0 Bft)
19.02.2013 18:00 3,6 C 2,3 C 96 % 1016,5 hPa 0,0 l/m 0,00 h 0,67 h 0,0 UV-I 0 W/m 0,1 km/h (0 Bft)
19.02.2013 19:00 3,5 C 2,3 C 97 % 1017,0 hPa 0,2 l/m 0,00 h 0,43 h 0,0 UV-I 0 W/m 0,4 km/h (0 Bft)
19.02.2013 20:00 3,6 C 2,3 C 98 % 1017,3 hPa 0,2 l/m 0,00 h 0,57 h 0,0 UV-I 0 W/m 1,4 km/h (1 Bft)
19.02.2013 21:00 3,2 C 1,8 C 98 % 1018,0 hPa 0,0 l/m 0,00 h 0,07 h 0,0 UV-I 0 W/m 7,5 km/h (2 Bft)
19.02.2013 22:00 2,1 C 0,6 C 97 % 1018,8 hPa 0,0 l/m 0,00 h 0,00 h 0,0 UV-I 0 W/m 6,4 km/h (2 Bft)
19.02.2013 23:00 1,4 C -0,5 C 94 % 1019,2 hPa 0,0 l/m 0,00 h 0,00 h 0,0 UV-I 0 W/m 6,1 km/h (2 Bft)
20.02.2013 00:00 0,6 C -1,4 C 94 % 1019,7 hPa 0,0 l/m 0,00 h 0,00 h 0,0 UV-I 0 W/m 3,7 km/h (1 Bft)
20.02.2013 01:00 -0,1 C -2,1 C 94 % 1020,0 hPa 0,0 l/m 0,00 h 0,00 h 0,0 UV-I 0 W/m 1,4 km/h (1 Bft)
20.02.2013 02:00 -0,5 C -2,2 C 94 % 1020,4 hPa 0,0 l/m 0,00 h 0,00 h 0,0 UV-I 0 W/m 1,1 km/h (1 Bft)
20.02.2013 03:00 -0,8 C -2,6 C 94 % 1021,0 hPa 0,0 l/m 0,00 h 0,00 h 0,0 UV-I 0 W/m 0,9 km/h (0 Bft)
20.02.2013 04:00 -0,7 C -2,4 C 94 % 1021,4 hPa 0,0 l/m 0,00 h 0,00 h 0,0 UV-I 0 W/m 0,8 km/h (0 Bft)
20.02.2013 05:00 -1,2 C -3,1 C 94 % 1022,0 hPa 0,0 l/m 0,00 h 0,00 h 0,0 UV-I 0 W/m 0,7 km/h (0 Bft)
20.02.2013 06:00 -1,5 C -3,1 C 94 % 1022,5 hPa 0,0 l/m 0,00 h 0,00 h 0,0 UV-I 0 W/m 1,5 km/h (1 Bft)
20.02.2013 07:00 -1,8 C -3,2 C 94 % 1023,0 hPa 0,0 l/m 0,00 h 0,00 h 0,0 UV-I 8 W/m 1,8 km/h (1 Bft)
20.02.2013 08:00 -1,8 C -2,9 C 94 % 1023,7 hPa 0,0 l/m 0,00 h 0,00 h 0,0 UV-I 25 W/m 3,8 km/h (1 Bft)
20.02.2013 09:00 -0,9 C -1,8 C 91 % 1024,3 hPa 0,0 l/m 0,53 h 0,00 h 0,0 UV-I 137 W/m 5,8 km/h (2 Bft)
20.02.2013 10:00 0,2 C -0,5 C 86 % 1024,6 hPa 0,2 l/m 0,50 h 0,00 h 0,0 UV-I 208 W/m 8,7 km/h (2 Bft)
20.02.2013 11:00 1,6 C 0,6 C 80 % 1024,6 hPa 0,0 l/m 0,93 h 0,00 h 0,5 UV-I 400 W/m 11,8 km/h (2 Bft)
20.02.2013 12:00 2,7 C 1,5 C 72 % 1024,6 hPa 0,0 l/m 0,90 h 0,00 h 0,6 UV-I 444 W/m 10,8 km/h (2 Bft)
20.02.2013 13:00 2,3 C 1,3 C 73 % 1024,5 hPa 0,0 l/m 0,10 h 0,00 h 0,0 UV-I 168 W/m 8,7 km/h (2 Bft)
20.02.2013 14:00 1,6 C 1,1 C 77 % 1024,1 hPa 0,0 l/m 0,23 h 0,00 h 0,0 UV-I 180 W/m 9,5 km/h (2 Bft)
20.02.2013 15:00 1,5 C 0,6 C 75 % 1024,0 hPa 0,0 l/m 0,00 h 0,03 h 0,0 UV-I 67 W/m 6,3 km/h (2 Bft)
20.02.2013 16:00 1,2 C 0,2 C 74 % 1024,1 hPa 0,0 l/m 0,00 h 0,00 h 0,0 UV-I 63 W/m 6,6 km/h (2 Bft)
20.02.2013 17:00 0,7 C -0,7 C 77 % 1024,2 hPa 0,0 l/m 0,00 h 0,00 h 0,0 UV-I 13 W/m 6,5 km/h (2 Bft)
20.02.2013 18:00 -0,4 C -1,8 C 80 % 1024,5 hPa 0,0 l/m 0,00 h 0,00 h 0,0 UV-I 0 W/m 0,4 km/h (0 Bft)
20.02.2013 19:00 -0,1 C -1,2 C 80 % 1024,8 hPa 0,0 l/m 0,00 h 0,00 h 0,0 UV-I 0 W/m 2,3 km/h (1 Bft)
20.02.2013 20:00 -0,2 C -1,6 C 81 % 1024,7 hPa 0,0 l/m 0,00 h 0,00 h 0,0 UV-I 0 W/m 4,7 km/h (1 Bft)
20.02.2013 21:00 -0,7 C -2,0 C 85 % 1024,7 hPa 0,0 l/m 0,00 h 0,00 h 0,0 UV-I 0 W/m 2,1 km/h (1 Bft)
20.02.2013 22:00 -1,0 C -2,6 C 85 % 1024,9 hPa 0,0 l/m 0,00 h 0,00 h 0,0 UV-I 0 W/m 1,2 km/h (1 Bft)
20.02.2013 23:00 -1,6 C -3,2 C 87 % 1024,9 hPa 0,0 l/m 0,00 h 0,00 h 0,0 UV-I 0 W/m 0,5 km/h (0 Bft)
21.02.2013 00:00 -1,7 C -2,8 C 88 % 1024,8 hPa 0,0 l/m 0,00 h 0,00 h 0,0 UV-I 0 W/m 1,4 km/h (1 Bft)
21.02.2013 01:00 -1,3 C -2,2 C 84 % 1024,6 hPa 0,0 l/m 0,00 h 0,00 h 0,0 UV-I 0 W/m 5,8 km/h (2 Bft)
21.02.2013 02:00 -1,4 C -2,7 C 83 % 1024,5 hPa 0,0 l/m 0,00 h 0,00 h 0,0 UV-I 0 W/m 5,8 km/h (2 Bft)
21.02.2013 03:00 -1,6 C -2,8 C 84 % 1024,2 hPa 0,0 l/m 0,00 h 0,00 h 0,0 UV-I 0 W/m 5,8 km/h (2 Bft)
21.02.2013 04:00 -1,7 C -3,1 C 85 % 1023,9 hPa 0,0 l/m 0,00 h 0,00 h 0,0 UV-I 0 W/m 2,7 km/h (1 Bft)
21.02.2013 05:00 -2,2 C -3,5 C 87 % 1023,9 hPa 0,0 l/m 0,00 h 0,00 h 0,0 UV-I 0 W/m 3,2 km/h (1 Bft)
21.02.2013 06:00 -2,1 C -3,6 C 85 % 1023,8 hPa 0,0 l/m 0,00 h 0,00 h 0,0 UV-I 0 W/m 4,9 km/h (1 Bft)
21.02.2013 07:00 -2,3 C -3,5 C 86 % 1023,9 hPa 0,0 l/m 0,00 h 0,00 h 0,0 UV-I 8 W/m 3,5 km/h (1 Bft)
21.02.2013 08:00 -1,9 C -2,5 C 89 % 1024,0 hPa 0,0 l/m 0,00 h 0,10 h 0,0 UV-I 26 W/m 2,1 km/h (1 Bft)
21.02.2013 09:00 -1,2 C -1,9 C 92 % 1024,0 hPa 0,0 l/m 0,00 h 0,95 h 0,0 UV-I 37 W/m 1,0 km/h (0 Bft)
21.02.2013 10:00 -0,8 C -1,1 C 91 % 1023,9 hPa 0,0 l/m 0,00 h 0,70 h 0,0 UV-I 73 W/m 6,9 km/h (2 Bft)
21.02.2013 11:00 0,1 C -0,1 C 84 % 1023,7 hPa 0,2 l/m 0,00 h 0,07 h 0,0 UV-I 152 W/m 10,5 km/h (2 Bft)
21.02.2013 12:00 0,2 C -0,3 C 82 % 1023,4 hPa 0,0 l/m 0,00 h 0,00 h 0,0 UV-I 96 W/m 6,5 km/h (2 Bft)
21.02.2013 13:00 0,2 C -0,4 C 82 % 1022,8 hPa 0,0 l/m 0,00 h 0,00 h 0,0 UV-I 96 W/m 7,7 km/h (2 Bft)
21.02.2013 14:00 0,6 C -0,1 C 83 % 1022,0 hPa 0,0 l/m 0,40 h 0,00 h 0,5 UV-I 234 W/m 9,9 km/h (2 Bft)
21.02.2013 15:00 1,0 C 0,4 C 79 % 1021,6 hPa 0,0 l/m 0,30 h 0,00 h 0,0 UV-I 164 W/m 10,6 km/h (2 Bft)
21.02.2013 16:00 0,7 C -0,3 C 76 % 1021,5 hPa 0,0 l/m 0,00 h 0,00 h 0,0 UV-I 49 W/m 9,0 km/h (2 Bft)
21.02.2013 17:00 0,1 C -1,2 C 78 % 1021,3 hPa 0,0 l/m 0,00 h 0,00 h 0,0 UV-I 19 W/m 6,0 km/h (2 Bft)
21.02.2013 18:00 -0,5 C -1,7 C 82 % 1021,4 hPa 0,0 l/m 0,00 h 0,00 h 0,0 UV-I 0 W/m 6,9 km/h (2 Bft)
21.02.2013 19:00 -0,6 C -1,7 C 85 % 1021,2 hPa 0,0 l/m 0,00 h 0,00 h 0,0 UV-I 0 W/m 9,9 km/h (2 Bft)
21.02.2013 20:00 -1,0 C -2,4 C 83 % 1021,1 hPa 0,0 l/m 0,00 h 0,00 h 0,0 UV-I 0 W/m 8,1 km/h (2 Bft)
21.02.2013 21:00 -1,1 C -2,1 C 84 % 1021,0 hPa 0,0 l/m 0,00 h 0,00 h 0,0 UV-I 0 W/m 4,3 km/h (1 Bft)
21.02.2013 22:00 -0,9 C -2,1 C 82 % 1020,7 hPa 0,0 l/m 0,00 h 0,00 h 0,0 UV-I 0 W/m 6,6 km/h (2 Bft)
21.02.2013 23:00 -1,3 C -2,7 C 82 % 1020,5 hPa 0,0 l/m 0,00 h 0,00 h 0,0 UV-I 0 W/m 5,7 km/h (1 Bft)
22.02.2013 00:00 -1,3 C -2,6 C 80 % 1020,2 hPa 0,0 l/m 0,00 h 0,00 h 0,0 UV-I 0 W/m 11,1 km/h (2 Bft)
22.02.2013 01:00 -1,3 C -2,6 C 82 % 1019,8 hPa 0,0 l/m 0,00 h 0,00 h 0,0 UV-I 0 W/m 6,1 km/h (2 Bft)
22.02.2013 02:00 -1,6 C -2,7 C 82 % 1019,5 hPa 0,0 l/m 0,00 h 0,00 h 0,0 UV-I 0 W/m 8,6 km/h (2 Bft)
22.02.2013 03:00 -1,9 C -2,9 C 82 % 1018,8 hPa 0,0 l/m 0,00 h 0,00 h 0,0 UV-I 0 W/m 7,0 km/h (2 Bft)
22.02.2013 04:00 -2,1 C -3,2 C 82 % 1018,5 hPa 0,0 l/m 0,00 h 0,00 h 0,0 UV-I 0 W/m 8,6 km/h (2 Bft)
22.02.2013 05:00 -2,3 C -3,2 C 83 % 1018,5 hPa 0,0 l/m 0,00 h 0,00 h 0,0 UV-I 0 W/m 8,8 km/h (2 Bft)
22.02.2013 06:00 -2,4 C -3,2 C 80 % 1018,6 hPa 0,0 l/m 0,00 h 0,00 h 0,0 UV-I 0 W/m 10,4 km/h (2 Bft)
22.02.2013 07:00 -2,9 C -4,2 C 81 % 1018,7 hPa 0,0 l/m 0,00 h 0,00 h 0,0 UV-I 7 W/m 3,5 km/h (1 Bft)
22.02.2013 08:00 -3,0 C -3,9 C 81 % 1018,9 hPa 0,0 l/m 0,00 h 0,00 h 0,0 UV-I 34 W/m 4,9 km/h (1 Bft)
22.02.2013 09:00 -2,6 C -3,2 C 79 % 1018,8 hPa 0,0 l/m 0,10 h 0,00 h 0,0 UV-I 94 W/m 7,7 km/h (2 Bft)
22.02.2013 10:00 -1,9 C -2,1 C 75 % 1018,6 hPa 0,0 l/m 0,03 h 0,00 h 0,0 UV-I 102 W/m 13,0 km/h (3 Bft)
22.02.2013 11:00 -1,1 C -1,0 C 71 % 1018,2 hPa 0,0 l/m 0,17 h 0,00 h 0,0 UV-I 168 W/m 12,4 km/h (3 Bft)
22.02.2013 12:00 -0,8 C -0,9 C 73 % 1017,8 hPa 0,0 l/m 0,00 h 0,00 h 0,0 UV-I 135 W/m 10,9 km/h (2 Bft)
22.02.2013 13:00 -0,7 C -0,6 C 74 % 1017,2 hPa 0,0 l/m 0,13 h 0,03 h 0,0 UV-I 176 W/m 13,0 km/h (3 Bft)
22.02.2013 14:00 -1,1 C -1,5 C 80 % 1016,6 hPa 0,0 l/m 0,00 h 0,17 h 0,0 UV-I 84 W/m 11,8 km/h (2 Bft)
22.02.2013 15:00 -1,0 C -1,5 C 76 % 1016,2 hPa 0,0 l/m 0,00 h 0,00 h 0,0 UV-I 70 W/m 11,7 km/h (2 Bft)
22.02.2013 16:00 -1,3 C -1,8 C 77 % 1016,1 hPa 0,0 l/m 0,00 h 0,00 h 0,0 UV-I 56 W/m 9,5 km/h (2 Bft)
22.02.2013 17:00 -1,9 C -3,0 C 82 % 1016,2 hPa 0,0 l/m 0,00 h 0,03 h 0,0 UV-I 18 W/m 7,5 km/h (2 Bft)
22.02.2013 18:00 -2,4 C -3,4 C 85 % 1016,5 hPa 0,0 l/m 0,00 h 0,00 h 0,0 UV-I 0 W/m 4,5 km/h (1 Bft)
22.02.2013 19:00 -2,4 C -3,3 C 83 % 1016,7 hPa 0,0 l/m 0,00 h 0,00 h 0,0 UV-I 0 W/m 8,7 km/h (2 Bft)
22.02.2013 20:00 -2,6 C -3,8 C 83 % 1016,7 hPa 0,0 l/m 0,00 h 0,00 h 0,0 UV-I 0 W/m 6,7 km/h (2 Bft)
22.02.2013 21:00 -3,2 C -4,7 C 82 % 1016,6 hPa 0,0 l/m 0,00 h 0,00 h 0,0 UV-I 0 W/m 4,9 km/h (1 Bft)
22.02.2013 22:00 -3,4 C -4,5 C 82 % 1016,6 hPa 0,0 l/m 0,00 h 0,00 h 0,0 UV-I 0 W/m 6,0 km/h (2 Bft)
22.02.2013 23:00 -3,2 C -4,1 C 82 % 1016,4 hPa 0,0 l/m 0,00 h 0,00 h 0,0 UV-I 0 W/m 7,4 km/h (2 Bft)
23.02.2013 00:00 -2,9 C -3,8 C 82 % 1016,3 hPa 0,0 l/m 0,00 h 0,00 h 0,0 UV-I 0 W/m 7,8 km/h (2 Bft)
23.02.2013 01:00 -2,8 C -3,8 C 82 % 1016,0 hPa 0,0 l/m 0,00 h 0,00 h 0,0 UV-I 0 W/m 7,1 km/h (2 Bft)
23.02.2013 02:00 -2,9 C -4,1 C 81 % 1015,8 hPa 0,0 l/m 0,00 h 0,00 h 0,0 UV-I 0 W/m 5,6 km/h (1 Bft)
23.02.2013 03:00 -3,4 C -4,3 C 83 % 1015,5 hPa 0,0 l/m 0,00 h 0,00 h 0,0 UV-I 0 W/m 5,9 km/h (2 Bft)
23.02.2013 04:00 -3,5 C -4,3 C 84 % 1015,2 hPa 0,0 l/m 0,00 h 0,00 h 0,0 UV-I 0 W/m 5,4 km/h (1 Bft)
23.02.2013 05:00 -3,6 C -4,3 C 85 % 1015,1 hPa 0,0 l/m 0,00 h 0,00 h 0,0 UV-I 0 W/m 7,2 km/h (2 Bft)
23.02.2013 06:00 -3,7 C -4,3 C 85 % 1015,0 hPa 0,0 l/m 0,00 h 0,00 h 0,0 UV-I 0 W/m 8,6 km/h (2 Bft)
23.02.2013 07:00 -3,5 C -4,3 C 84 % 1015,0 hPa 0,0 l/m 0,00 h 0,00 h 0,0 UV-I 7 W/m 11,0 km/h (2 Bft)
23.02.2013 08:00 -3,6 C -4,3 C 85 % 1015,3 hPa 0,0 l/m 0,00 h 0,00 h 0,0 UV-I 21 W/m 14,8 km/h (3 Bft)
23.02.2013 09:00 -3,1 C -3,5 C 84 % 1015,3 hPa 0,0 l/m 0,00 h 0,00 h 0,0 UV-I 60 W/m 16,1 km/h (3 Bft)
23.02.2013 10:00 -2,6 C -2,9 C 83 % 1015,4 hPa 0,0 l/m 0,00 h 0,00 h 0,0 UV-I 73 W/m 13,1 km/h (3 Bft)
23.02.2013 11:00 -2,3 C -2,7 C 82 % 1015,5 hPa 0,0 l/m 0,00 h 0,00 h 0,0 UV-I 84 W/m 16,0 km/h (3 Bft)
23.02.2013 12:00 -2,0 C -2,3 C 83 % 1015,4 hPa 0,0 l/m 0,00 h 0,00 h 0,0 UV-I 69 W/m 13,7 km/h (3 Bft)
23.02.2013 13:00 -1,8 C -2,4 C 84 % 1015,1 hPa 0,0 l/m 0,00 h 0,00 h 0,0 UV-I 54 W/m 14,2 km/h (3 Bft)
23.02.2013 14:00 -1,4 C -1,8 C 84 % 1015,0 hPa 0,0 l/m 0,00 h 0,00 h 0,0 UV-I 68 W/m 14,0 km/h (3 Bft)
23.02.2013 15:00 -1,2 C -1,8 C 85 % 1014,9 hPa 0,0 l/m 0,00 h 0,00 h 0,0 UV-I 47 W/m 9,4 km/h (2 Bft)
23.02.2013 16:00 -0,8 C -1,6 C 83 % 1014,8 hPa 0,0 l/m 0,00 h 0,00 h 0,0 UV-I 28 W/m 7,8 km/h (2 Bft)
23.02.2013 17:00 -0,6 C -1,6 C 81 % 1014,9 hPa 0,0 l/m 0,00 h 0,00 h 0,0 UV-I 9 W/m 9,5 km/h (2 Bft)
23.02.2013 18:00 -0,7 C -1,9 C 81 % 1015,0 hPa 0,0 l/m 0,00 h 0,00 h 0,0 UV-I 0 W/m 11,8 km/h (2 Bft)
23.02.2013 19:00 -0,8 C -2,0 C 82 % 1015,1 hPa 0,0 l/m 0,00 h 0,00 h 0,0 UV-I 0 W/m 16,4 km/h (3 Bft)
23.02.2013 20:00 -1,2 C -2,1 C 87 % 1015,0 hPa 0,0 l/m 0,00 h 0,00 h 0,0 UV-I 0 W/m 15,1 km/h (3 Bft)
23.02.2013 21:00 -1,3 C -2,1 C 90 % 1015,2 hPa 0,0 l/m 0,00 h 0,00 h 0,0 UV-I 0 W/m 13,1 km/h (3 Bft)
23.02.2013 22:00 -1,2 C -2,1 C 90 % 1015,6 hPa 0,0 l/m 0,00 h 0,00 h 0,0 UV-I 0 W/m 11,4 km/h (2 Bft)
23.02.2013 23:00 -1,3 C -2,2 C 93 % 1015,5 hPa 0,0 l/m 0,00 h 0,00 h 0,0 UV-I 0 W/m 11,7 km/h (2 Bft)
24.02.2013 00:00 -1,2 C -2,1 C 95 % 1015,2 hPa 0,0 l/m 0,00 h 0,00 h 0,0 UV-I 0 W/m 13,6 km/h (3 Bft)
24.02.2013 01:00 -1,2 C -2,1 C 96 % 1014,9 hPa 0,0 l/m 0,00 h 0,00 h 0,0 UV-I 0 W/m 15,0 km/h (3 Bft)
24.02.2013 02:00 -1,2 C -2,1 C 96 % 1014,5 hPa 0,0 l/m 0,00 h 0,00 h 0,0 UV-I 0 W/m 14,8 km/h (3 Bft)
24.02.2013 03:00 -1,1 C -2,1 C 96 % 1014,5 hPa 0,0 l/m 0,00 h 0,00 h 0,0 UV-I 0 W/m 11,6 km/h (2 Bft)
24.02.2013 04:00 -1,1 C -2,1 C 97 % 1014,2 hPa 0,0 l/m 0,00 h 0,00 h 0,0 UV-I 0 W/m 12,4 km/h (3 Bft)
24.02.2013 05:00 -1,1 C -2,1 C 97 % 1014,0 hPa 0,0 l/m 0,00 h 0,00 h 0,0 UV-I 0 W/m 13,2 km/h (3 Bft)
24.02.2013 06:00 -1,1 C -2,1 C 97 % 1013,9 hPa 0,0 l/m 0,00 h 0,03 h 0,0 UV-I 0 W/m 12,7 km/h (3 Bft)
24.02.2013 07:00 -0,9 C -2,1 C 97 % 1014,0 hPa 0,6 l/m 0,00 h 0,00 h 0,0 UV-I 0 W/m 15,2 km/h (3 Bft)
24.02.2013 08:00 -0,9 C -2,1 C 97 % 1014,5 hPa 0,0 l/m 0,00 h 0,00 h 0,0 UV-I 7 W/m 16,9 km/h (3 Bft)
24.02.2013 09:00 -0,8 C -1,7 C 96 % 1014,6 hPa 0,0 l/m 0,00 h 0,00 h 0,0 UV-I 20 W/m 16,1 km/h (3 Bft)
24.02.2013 10:00 -0,5 C -1,1 C 96 % 1014,8 hPa 0,0 l/m 0,00 h 0,00 h 0,0 UV-I 51 W/m 14,3 km/h (3 Bft)
24.02.2013 11:00 0,1 C -0,4 C 96 % 1015,2 hPa 0,0 l/m 0,00 h 0,00 h 0,0 UV-I 144 W/m 13,1 km/h (3 Bft)
24.02.2013 12:00 0,3 C -0,4 C 96 % 1015,2 hPa 0,2 l/m 0,00 h 0,27 h 0,0 UV-I 118 W/m 13,0 km/h (3 Bft)
24.02.2013 13:00 0,3 C -0,5 C 96 % 1015,1 hPa 0,2 l/m 0,00 h 0,10 h 0,0 UV-I 106 W/m 13,0 km/h (3 Bft)
24.02.2013 14:00 0,5 C -0,4 C 96 % 1015,0 hPa 0,4 l/m 0,00 h 0,10 h 0,0 UV-I 104 W/m 13,4 km/h (3 Bft)
24.02.2013 15:00 0,5 C -0,4 C 95 % 1015,1 hPa 0,4 l/m 0,00 h 0,00 h 0,0 UV-I 69 W/m 13,1 km/h (3 Bft)
24.02.2013 16:00 0,6 C -0,5 C 96 % 1015,2 hPa 0,4 l/m 0,00 h 0,03 h 0,0 UV-I 49 W/m 13,3 km/h (3 Bft)
24.02.2013 17:00 0,4 C -1,0 C 97 % 1015,6 hPa 0,4 l/m 0,00 h 0,27 h 0,0 UV-I 13 W/m 9,3 km/h (2 Bft)
24.02.2013 18:00 0,2 C -1,0 C 97 % 1016,0 hPa 0,0 l/m 0,00 h 0,30 h 0,0 UV-I 0 W/m 8,6 km/h (2 Bft)
24.02.2013 19:00 0,2 C -1,0 C 98 % 1016,5 hPa 0,0 l/m 0,00 h 0,03 h 0,0 UV-I 0 W/m 7,9 km/h (2 Bft)
24.02.2013 20:00 0,2 C -1,0 C 98 % 1016,7 hPa 0,0 l/m 0,00 h 0,00 h 0,0 UV-I 0 W/m 8,7 km/h (2 Bft)
24.02.2013 21:00 0,3 C -1,0 C 98 % 1017,1 hPa 0,0 l/m 0,00 h 0,00 h 0,0 UV-I 0 W/m 7,1 km/h (2 Bft)
24.02.2013 22:00 0,3 C -1,0 C 98 % 1017,6 hPa 0,0 l/m 0,00 h 0,00 h 0,0 UV-I 0 W/m 6,7 km/h (2 Bft)
24.02.2013 23:00 0,4 C -1,0 C 98 % 1017,8 hPa 0,0 l/m 0,00 h 0,00 h 0,0 UV-I 0 W/m 7,3 km/h (2 Bft)
Min-Datum _ 18.02.13 18.02.13 18.02.13 24.02.13 - - - - - 18.02.13
_ Min-Zeit 06:56 05:54 15:02 06:10 - - - - - 00:00
Minimum _ -4,0 C -4,9 C 63 % 1013,7 hPa - - - - - 0,0 km/h (0 Bft)
Max-Datum _ 18.02.13 18.02.13 18.02.13 20.02.13 24.02.13 18.02.13 18.02.13 18.02.13 20.02.13 22.02.13
_ Max-Zeit 14:58 13:02 10:04 22:34 07:06 10:16 04:38 12:38 12:50 10:38
Maximum _ 7,3 C 5,1 C 100 % 1025,1 hPa 0,6 l/m 0,03 h 0,03 h 0,7 UV-I 580 W/m 30,9 km/h
O-SO (5 Bft)
Durchschnitt _ -0,4 C -1,4 C 87 % 1019,0 hPa #4,0 l/m #9:24 h #7:59 h 0,6 UV-I 99 W/m 6,5 km/h (2 Bft)
© 2013 W. Hausmann